Aviation Digital Data Service (ADDS)

Output produced by METARs form (1825 UTC 22 November 2017)
found at http://www.aviationweather.gov/adds/metars/
 
TAF KFAF 221100Z 2211/2317 30009KT 9000 -SHRA FEW015 BKN040 OVC090 QNH2989INS 
     BECMG 2212/2213 30012KT 6000 -SHRA BKN015 OVC030 QNH2987INS 
     BECMG 2214/2215 31010G15KT 9999 NSW FEW030 QNH2995INS 
     TEMPO 2217/2220 34015G20KT 
     BECMG 2222/2223 35012KT 9999 SKC QNH3006INS TX12/2211Z TN02/2311Z
       
KFAR 221734Z 2218/2318 17013KT P6SM SCT060 OVC080 
     FM230100 VRB06KT P6SM SCT110 
     FM231700 16008KT P6SM SCT130
       
KFAT 221720Z 2218/2318 VRB04KT 5SM HZ SKC 
     FM231200 02002KT 2SM BR BKN250
       
KFAY 221720Z 2218/2318 35013KT P6SM SKC 
     FM222300 02006KT P6SM BKN250
       
TAF KFBG 221800Z 2218/2324 34012KT 9999 BKN250 QNH2998INS 
     BECMG 2221/2222 35009KT 9999 BKN250 QNH3003INS TX21/2221Z TN01/2312Z
       
TAF KFCS 221300Z 2213/2319 32009KT 9999 SCT150 QNH3022INS 
     BECMG 2217/2218 15012KT 9999 FEW200 QNH3025INS 
     BECMG 2300/2301 VRB06KT 9999 FEW150 QNH3023INS TX15/2221Z TNM01/2214Z
       
KFDY 221730Z 2218/2318 30008KT P6SM BKN035 
     FM222200 27005KT P6SM SCT035 
     FM230900 22005KT P6SM BKN035 OVC100
       
TAF KFFO 221100Z 2211/2317 34012KT 9999 BKN033 620332 QNH3013INS 
     BECMG 2216/2217 32009KT 9999 SKC QNH3021INS 
     BECMG 2301/2302 VRB06KT 9999 BKN250 QNH3015INS 
     BECMG 2308/2309 22006KT 9999 SCT100 BKN120 QNH3013INS 
     BECMG 2311/2312 20009KT 9999 BKN080 620809 QNH3007INS TX04/2220Z TNM02/2211Z
       
TAF KFHU 221800Z 2218/2324 10009KT 9999 FEW250 QNH3023INS 
     TEMPO 2218/2223 10010G15KT 
     BECMG 2300/2301 12006KT 9999 SKC QNH3026INS 
     BECMG 2317/2318 11009KT 9999 SKC QNH3016INS TX23/2221Z TN08/2313Z
       
KFKL 221722Z 2218/2318 30010KT P6SM -DZ OVC020 
     FM222200 31006KT P6SM BKN035 
     FM230100 31003KT P6SM SCT035
       
KFLG 221720Z 2218/2318 07008KT P6SM FEW250
       
KFLL 221731Z 2218/2324 11012KT P6SM FEW025 SCT250 
     FM230100 10005KT P6SM FEW030 BKN250 
     FM230600 14006KT P6SM VCSH SCT025 BKN040 
     FM231400 15011KT P6SM VCSH SCT030 BKN070 BKN100
       
KFLO 221720Z 2218/2318 01007KT P6SM SCT250 
     FM230100 01004KT P6SM BKN250
       
KFMH 221734Z 2218/2318 22006KT 5SM -RA BR OVC035 
     FM221900 29006KT 2SM -RA BR OVC010 
     FM222300 33015G28KT P6SM BKN040 
     FM230300 33016G30KT P6SM SKC 
     FM230900 32009KT P6SM SKC
       
KFMN 221723Z 2218/2318 20006KT P6SM FEW250 
     FM222000 27013G21KT P6SM FEW250 
     FM230100 28007KT P6SM SKC 
     FM230800 09005KT P6SM SKC
       
KFMY 221739Z 2218/2318 VRB04KT P6SM SCT035 SCT250 
     FM221900 32006KT P6SM SCT040 SCT250 
     FM230100 07004KT P6SM BKN040 
     FM230800 10004KT P6SM SCT015 BKN130 
     FM231400 14006KT P6SM SCT025 BKN130 
     FM231700 18008KT P6SM VCSH SCT035 BKN100
       
KFNT 221725Z 2218/2318 33010KT P6SM BKN040 
     FM222200 29008KT P6SM SCT045 
     FM230100 24003KT P6SM BKN250 
     FM230800 23007KT P6SM BKN100
       
KFOD 221727Z 2218/2318 20010KT P6SM SCT240 
     FM222300 19010KT P6SM BKN110 
     FM230700 VRB05KT P6SM SKC 
     FM231200 31006KT P6SM SKC
       
KFOE 221722Z 2218/2318 21006KT P6SM SCT250 
     FM231400 30004KT P6SM SKC
       
KFPR 221753Z 2218/2318 03010KT P6SM SCT025 
     FM230600 09006KT P6SM VCSH SCT020 BKN035 
     FM231400 14007KT P6SM VCSH SCT025 OVC040
       
TAF KFRI 221600Z 2216/2322 21010KT 9999 FEW230 510203 QNH2994INS TX13/2316Z TNM02/2216Z LAST NO AMDS AFT 2222 NEXT 2700
       
KFSD 221737Z 2218/2318 18013G20KT P6SM BKN200 
     FM222330 20009KT P6SM SCT250 
     FM230200 23006KT P6SM FEW250 
     FM231400 VRB03KT P6SM FEW250
       
TAF KFSI 221400Z 2214/2320 02009KT 9999 SKC QNH3030INS 
     BECMG 2223/2224 17006KT 9999 SKC QNH3020INS TX19/2221Z TNM02/2311Z
       
KFSM 221720Z 2218/2318 VRB04KT P6SM FEW250
       
KFST 221720Z 2218/2318 06004KT P6SM SCT200 
     FM230700 20006KT P6SM SCT200
       
TAF KFTK 221700Z 2217/2323 35009KT 9999 FEW200 QNH3003INS WND VRB06KT AFT 2223 TX07/2220Z TNM04/2312Z
       
KFTW 221752Z 2218/2318 33012KT P6SM SCT250 
     FM230200 VRB03KT P6SM SKC 
     FM231500 18008KT P6SM SCT250
       
KFTY 221723Z 2218/2318 33008KT P6SM FEW250 
     FM230100 34004KT P6SM SCT250 
     FM230600 00000KT P6SM SCT030 
     FM230900 04003KT P6SM BKN030 
     FM231600 07004KT P6SM FEW035
       
KFVE 221729Z 2218/2318 VRB02KT P6SM VCSH OVC060 
     FM222000 00000KT 3SM -RASN OVC020 
     FM222100 00000KT 1SM -SN SCT005 OVC010 
     FM230400 33011G19KT P6SM BKN020 
     FM231200 33012G20KT P6SM SCT020
       
KFWA 221728Z 2218/2318 31006KT P6SM BKN035 
     FM230000 23003KT P6SM BKN150 
     FM231500 22010KT P6SM BKN070
       
KFXE 221731Z 2218/2318 VRB04KT P6SM SCT030 
     FM221900 09010KT P6SM SCT030 SCT250 
     FM230100 VRB03KT P6SM FEW030 BKN250 
     FM231500 14009KT P6SM VCSH SCT030 BKN070 BKN100
       
KFYV 221720Z 2218/2318 VRB04KT P6SM FEW250